sensor_id;sensor_type;location;lat;lon;timestamp;P1;durP1;ratioP1;P2;durP2;ratioP2
11747;SDS011;5931;48.832;9.072;2023-11-21T00:00:21;5.30;;;2.10;;
11747;SDS011;5931;48.832;9.072;2023-11-21T00:02:47;3.50;;;2.10;;
11747;SDS011;5931;48.832;9.072;2023-11-21T00:05:13;2.50;;;1.60;;
11747;SDS011;5931;48.832;9.072;2023-11-21T00:07:40;2.40;;;1.47;;
11747;SDS011;5931;48.832;9.072;2023-11-21T00:10:07;3.30;;;1.77;;
11747;SDS011;5931;48.832;9.072;2023-11-21T00:12:33;11.00;;;1.80;;
11747;SDS011;5931;48.832;9.072;2023-11-21T00:15:00;2.90;;;1.50;;
11747;SDS011;5931;48.832;9.072;2023-11-21T00:17:27;4.27;;;1.80;;
11747;SDS011;5931;48.832;9.072;2023-11-21T00:19:53;3.87;;;1.87;;
11747;SDS011;5931;48.832;9.072;2023-11-21T00:22:19;2.50;;;1.70;;
11747;SDS011;5931;48.832;9.072;2023-11-21T00:24:45;2.50;;;2.07;;
11747;SDS011;5931;48.832;9.072;2023-11-21T00:27:12;3.63;;;1.57;;
11747;SDS011;5931;48.832;9.072;2023-11-21T00:29:37;3.23;;;2.00;;
11747;SDS011;5931;48.832;9.072;2023-11-21T00:32:04;3.00;;;1.20;;
11747;SDS011;5931;48.832;9.072;2023-11-21T00:34:31;2.40;;;1.53;;
11747;SDS011;5931;48.832;9.072;2023-11-21T00:36:57;1.70;;;1.00;;
11747;SDS011;5931;48.832;9.072;2023-11-21T00:39:23;3.20;;;1.83;;
11747;SDS011;5931;48.832;9.072;2023-11-21T00:41:49;2.33;;;1.50;;
11747;SDS011;5931;48.832;9.072;2023-11-21T00:44:17;2.53;;;1.20;;
11747;SDS011;5931;48.832;9.072;2023-11-21T00:46:43;1.60;;;1.47;;
11747;SDS011;5931;48.832;9.072;2023-11-21T00:49:09;4.33;;;1.40;;
11747;SDS011;5931;48.832;9.072;2023-11-21T00:51:34;5.33;;;1.40;;
11747;SDS011;5931;48.832;9.072;2023-11-21T00:54:01;2.97;;;1.70;;
11747;SDS011;5931;48.832;9.072;2023-11-21T00:56:27;1.40;;;1.20;;
11747;SDS011;5931;48.832;9.072;2023-11-21T00:58:53;2.10;;;1.40;;
11747;SDS011;5931;48.832;9.072;2023-11-21T01:01:19;3.37;;;1.37;;
11747;SDS011;5931;48.832;9.072;2023-11-21T01:03:47;2.67;;;1.27;;
11747;SDS011;5931;48.832;9.072;2023-11-21T01:06:12;3.27;;;1.47;;
11747;SDS011;5931;48.832;9.072;2023-11-21T01:08:38;1.37;;;1.27;;
11747;SDS011;5931;48.832;9.072;2023-11-21T01:11:04;4.73;;;1.50;;
11747;SDS011;5931;48.832;9.072;2023-11-21T01:13:32;3.73;;;1.87;;
11747;SDS011;5931;48.832;9.072;2023-11-21T01:15:59;5.33;;;1.43;;
11747;SDS011;5931;48.832;9.072;2023-11-21T01:18:24;3.50;;;1.67;;
11747;SDS011;5931;48.832;9.072;2023-11-21T01:20:54;2.50;;;1.30;;
11747;SDS011;5931;48.832;9.072;2023-11-21T01:23:20;5.27;;;1.60;;
11747;SDS011;5931;48.832;9.072;2023-11-21T01:25:46;5.60;;;1.57;;
11747;SDS011;5931;48.832;9.072;2023-11-21T01:28:12;2.57;;;1.47;;
11747;SDS011;5931;48.832;9.072;2023-11-21T01:30:37;3.40;;;1.47;;
11747;SDS011;5931;48.832;9.072;2023-11-21T01:33:03;3.63;;;1.30;;
11747;SDS011;5931;48.832;9.072;2023-11-21T01:35:30;2.03;;;1.30;;
11747;SDS011;5931;48.832;9.072;2023-11-21T01:37:55;3.03;;;1.40;;
11747;SDS011;5931;48.832;9.072;2023-11-21T01:40:23;2.80;;;1.93;;
11747;SDS011;5931;48.832;9.072;2023-11-21T01:42:49;1.40;;;1.00;;
11747;SDS011;5931;48.832;9.072;2023-11-21T01:45:15;4.27;;;1.37;;
11747;SDS011;5931;48.832;9.072;2023-11-21T01:47:41;4.03;;;1.80;;
11747;SDS011;5931;48.832;9.072;2023-11-21T01:50:09;1.60;;;1.37;;
11747;SDS011;5931;48.832;9.072;2023-11-21T01:52:41;5.03;;;2.07;;
11747;SDS011;5931;48.832;9.072;2023-11-21T01:55:08;2.50;;;1.60;;
11747;SDS011;5931;48.832;9.072;2023-11-21T01:57:35;2.83;;;1.20;;
11747;SDS011;5931;48.832;9.072;2023-11-21T02:00:03;5.20;;;1.37;;
11747;SDS011;5931;48.832;9.072;2023-11-21T02:02:44;3.43;;;1.60;;
11747;SDS011;5931;48.832;9.072;2023-11-21T02:05:14;6.53;;;1.50;;
11747;SDS011;5931;48.832;9.072;2023-11-21T02:07:42;2.20;;;1.60;;
11747;SDS011;5931;48.832;9.072;2023-11-21T02:10:08;2.60;;;1.43;;
11747;SDS011;5931;48.832;9.072;2023-11-21T02:12:35;6.50;;;1.50;;
11747;SDS011;5931;48.832;9.072;2023-11-21T02:15:04;2.10;;;1.70;;
11747;SDS011;5931;48.832;9.072;2023-11-21T02:17:35;2.43;;;1.23;;
11747;SDS011;5931;48.832;9.072;2023-11-21T02:20:01;2.67;;;1.60;;
11747;SDS011;5931;48.832;9.072;2023-11-21T02:22:29;3.27;;;2.00;;
11747;SDS011;5931;48.832;9.072;2023-11-21T02:24:57;2.13;;;1.30;;
11747;SDS011;5931;48.832;9.072;2023-11-21T02:27:23;1.57;;;1.23;;
11747;SDS011;5931;48.832;9.072;2023-11-21T02:29:50;1.60;;;1.30;;
11747;SDS011;5931;48.832;9.072;2023-11-21T02:32:16;2.70;;;1.60;;
11747;SDS011;5931;48.832;9.072;2023-11-21T02:34:48;1.30;;;1.10;;
11747;SDS011;5931;48.832;9.072;2023-11-21T02:37:13;3.93;;;1.60;;
11747;SDS011;5931;48.832;9.072;2023-11-21T02:39:39;2.60;;;1.30;;
11747;SDS011;5931;48.832;9.072;2023-11-21T02:42:05;1.80;;;1.47;;
11747;SDS011;5931;48.832;9.072;2023-11-21T02:48:30;3.33;;;1.53;;
11747;SDS011;5931;48.832;9.072;2023-11-21T02:50:56;2.07;;;1.13;;
11747;SDS011;5931;48.832;9.072;2023-11-21T02:53:22;1.70;;;1.30;;
11747;SDS011;5931;48.832;9.072;2023-11-21T02:55:49;1.60;;;1.00;;
11747;SDS011;5931;48.832;9.072;2023-11-21T02:58:15;2.23;;;1.20;;
11747;SDS011;5931;48.832;9.072;2023-11-21T03:00:42;4.90;;;1.30;;
11747;SDS011;5931;48.832;9.072;2023-11-21T03:03:08;3.40;;;1.60;;
11747;SDS011;5931;48.832;9.072;2023-11-21T03:05:33;1.90;;;1.20;;
11747;SDS011;5931;48.832;9.072;2023-11-21T03:08:00;1.70;;;1.20;;
11747;SDS011;5931;48.832;9.072;2023-11-21T03:10:26;2.70;;;1.40;;
11747;SDS011;5931;48.832;9.072;2023-11-21T03:12:52;6.13;;;1.50;;
11747;SDS011;5931;48.832;9.072;2023-11-21T03:15:18;2.80;;;1.40;;
11747;SDS011;5931;48.832;9.072;2023-11-21T03:17:43;1.87;;;1.40;;
11747;SDS011;5931;48.832;9.072;2023-11-21T03:20:09;5.73;;;1.70;;
11747;SDS011;5931;48.832;9.072;2023-11-21T03:22:36;2.33;;;1.47;;
11747;SDS011;5931;48.832;9.072;2023-11-21T03:25:03;1.60;;;1.33;;
11747;SDS011;5931;48.832;9.072;2023-11-21T03:27:30;2.47;;;1.67;;
11747;SDS011;5931;48.832;9.072;2023-11-21T03:29:56;1.73;;;1.30;;
11747;SDS011;5931;48.832;9.072;2023-11-21T03:32:21;2.70;;;1.40;;
11747;SDS011;5931;48.832;9.072;2023-11-21T03:34:54;1.47;;;1.37;;
11747;SDS011;5931;48.832;9.072;2023-11-21T03:37:23;1.53;;;1.43;;
11747;SDS011;5931;48.832;9.072;2023-11-21T03:39:48;2.77;;;1.30;;
11747;SDS011;5931;48.832;9.072;2023-11-21T03:42:14;1.50;;;1.10;;
11747;SDS011;5931;48.832;9.072;2023-11-21T03:44:40;1.93;;;1.10;;
11747;SDS011;5931;48.832;9.072;2023-11-21T03:47:06;1.43;;;1.20;;
11747;SDS011;5931;48.832;9.072;2023-11-21T03:49:32;2.30;;;1.20;;
11747;SDS011;5931;48.832;9.072;2023-11-21T03:51:58;1.60;;;1.20;;
11747;SDS011;5931;48.832;9.072;2023-11-21T03:54:24;1.67;;;1.27;;
11747;SDS011;5931;48.832;9.072;2023-11-21T03:56:50;3.40;;;1.57;;
11747;SDS011;5931;48.832;9.072;2023-11-21T03:59:17;3.07;;;1.57;;
11747;SDS011;5931;48.832;9.072;2023-11-21T04:01:43;1.40;;;1.10;;
11747;SDS011;5931;48.832;9.072;2023-11-21T04:04:08;5.27;;;2.10;;
11747;SDS011;5931;48.832;9.072;2023-11-21T04:06:34;2.40;;;1.67;;
11747;SDS011;5931;48.832;9.072;2023-11-21T04:09:01;1.93;;;1.20;;
11747;SDS011;5931;48.832;9.072;2023-11-21T04:11:27;3.20;;;1.33;;
11747;SDS011;5931;48.832;9.072;2023-11-21T04:13:55;1.60;;;1.10;;
11747;SDS011;5931;48.832;9.072;2023-11-21T04:16:20;1.60;;;1.20;;
11747;SDS011;5931;48.832;9.072;2023-11-21T04:18:46;2.27;;;1.60;;
11747;SDS011;5931;48.832;9.072;2023-11-21T04:21:12;3.40;;;1.63;;
11747;SDS011;5931;48.832;9.072;2023-11-21T04:23:38;2.67;;;1.40;;
11747;SDS011;5931;48.832;9.072;2023-11-21T04:26:05;2.80;;;1.33;;
11747;SDS011;5931;48.832;9.072;2023-11-21T04:28:30;3.60;;;1.43;;
11747;SDS011;5931;48.832;9.072;2023-11-21T04:30:56;1.20;;;1.10;;
11747;SDS011;5931;48.832;9.072;2023-11-21T04:33:22;1.83;;;1.57;;
11747;SDS011;5931;48.832;9.072;2023-11-21T04:35:48;1.47;;;1.23;;
11747;SDS011;5931;48.832;9.072;2023-11-21T04:38:14;4.70;;;1.47;;
11747;SDS011;5931;48.832;9.072;2023-11-21T04:40:40;3.37;;;1.40;;
11747;SDS011;5931;48.832;9.072;2023-11-21T04:43:05;1.50;;;1.10;;
11747;SDS011;5931;48.832;9.072;2023-11-21T04:45:31;3.10;;;1.10;;
11747;SDS011;5931;48.832;9.072;2023-11-21T04:47:57;1.30;;;1.03;;
11747;SDS011;5931;48.832;9.072;2023-11-21T04:50:23;1.40;;;1.30;;
11747;SDS011;5931;48.832;9.072;2023-11-21T04:52:51;1.30;;;1.13;;
11747;SDS011;5931;48.832;9.072;2023-11-21T04:55:16;1.57;;;1.20;;
11747;SDS011;5931;48.832;9.072;2023-11-21T04:57:42;3.27;;;1.60;;
11747;SDS011;5931;48.832;9.072;2023-11-21T05:00:09;3.33;;;1.87;;
11747;SDS011;5931;48.832;9.072;2023-11-21T05:02:35;4.70;;;2.00;;
11747;SDS011;5931;48.832;9.072;2023-11-21T05:05:01;2.20;;;1.53;;
11747;SDS011;5931;48.832;9.072;2023-11-21T05:07:27;2.37;;;1.90;;
11747;SDS011;5931;48.832;9.072;2023-11-21T05:09:54;8.50;;;1.77;;
11747;SDS011;5931;48.832;9.072;2023-11-21T05:12:23;1.90;;;1.30;;
11747;SDS011;5931;48.832;9.072;2023-11-21T05:14:50;1.50;;;1.10;;
11747;SDS011;5931;48.832;9.072;2023-11-21T05:17:16;1.60;;;1.40;;
11747;SDS011;5931;48.832;9.072;2023-11-21T05:19:42;2.00;;;1.73;;
11747;SDS011;5931;48.832;9.072;2023-11-21T05:22:11;1.20;;;1.10;;
11747;SDS011;5931;48.832;9.072;2023-11-21T05:24:37;4.10;;;1.70;;
11747;SDS011;5931;48.832;9.072;2023-11-21T05:27:04;1.57;;;1.37;;
11747;SDS011;5931;48.832;9.072;2023-11-21T05:29:30;2.27;;;1.40;;
11747;SDS011;5931;48.832;9.072;2023-11-21T05:31:56;1.40;;;1.30;;
11747;SDS011;5931;48.832;9.072;2023-11-21T05:34:22;1.40;;;1.20;;
11747;SDS011;5931;48.832;9.072;2023-11-21T05:36:49;2.60;;;1.30;;
11747;SDS011;5931;48.832;9.072;2023-11-21T05:39:15;1.77;;;1.40;;
11747;SDS011;5931;48.832;9.072;2023-11-21T05:41:42;2.90;;;1.53;;
11747;SDS011;5931;48.832;9.072;2023-11-21T05:44:08;2.90;;;1.80;;
11747;SDS011;5931;48.832;9.072;2023-11-21T05:46:34;1.50;;;1.40;;
11747;SDS011;5931;48.832;9.072;2023-11-21T05:49:00;1.87;;;1.47;;
11747;SDS011;5931;48.832;9.072;2023-11-21T05:51:26;1.57;;;1.47;;
11747;SDS011;5931;48.832;9.072;2023-11-21T05:53:51;1.70;;;1.20;;
11747;SDS011;5931;48.832;9.072;2023-11-21T05:56:17;1.90;;;1.57;;
11747;SDS011;5931;48.832;9.072;2023-11-21T05:58:43;3.97;;;1.70;;
11747;SDS011;5931;48.832;9.072;2023-11-21T06:01:09;3.30;;;1.67;;
11747;SDS011;5931;48.832;9.072;2023-11-21T06:03:38;1.93;;;1.60;;
11747;SDS011;5931;48.832;9.072;2023-11-21T06:06:04;2.93;;;1.67;;
11747;SDS011;5931;48.832;9.072;2023-11-21T06:08:30;3.43;;;1.53;;
11747;SDS011;5931;48.832;9.072;2023-11-21T06:10:56;2.20;;;1.60;;
11747;SDS011;5931;48.832;9.072;2023-11-21T06:13:21;2.23;;;1.50;;
11747;SDS011;5931;48.832;9.072;2023-11-21T06:15:50;2.63;;;1.70;;
11747;SDS011;5931;48.832;9.072;2023-11-21T06:18:16;2.90;;;1.83;;
11747;SDS011;5931;48.832;9.072;2023-11-21T06:20:45;2.07;;;1.70;;
11747;SDS011;5931;48.832;9.072;2023-11-21T06:23:11;3.43;;;2.23;;
11747;SDS011;5931;48.832;9.072;2023-11-21T06:25:37;3.97;;;2.40;;
11747;SDS011;5931;48.832;9.072;2023-11-21T06:28:03;4.43;;;2.07;;
11747;SDS011;5931;48.832;9.072;2023-11-21T06:30:29;7.37;;;2.27;;
11747;SDS011;5931;48.832;9.072;2023-11-21T06:32:54;5.07;;;2.53;;
11747;SDS011;5931;48.832;9.072;2023-11-21T06:35:21;3.90;;;2.50;;
11747;SDS011;5931;48.832;9.072;2023-11-21T06:37:47;2.37;;;1.80;;
11747;SDS011;5931;48.832;9.072;2023-11-21T06:40:13;3.20;;;2.63;;
11747;SDS011;5931;48.832;9.072;2023-11-21T06:42:40;4.50;;;1.80;;
11747;SDS011;5931;48.832;9.072;2023-11-21T06:45:07;2.13;;;1.90;;
11747;SDS011;5931;48.832;9.072;2023-11-21T06:47:36;6.40;;;2.50;;
11747;SDS011;5931;48.832;9.072;2023-11-21T06:50:03;6.53;;;3.40;;
11747;SDS011;5931;48.832;9.072;2023-11-21T06:52:29;3.63;;;2.40;;
11747;SDS011;5931;48.832;9.072;2023-11-21T06:54:55;4.23;;;2.20;;
11747;SDS011;5931;48.832;9.072;2023-11-21T06:57:22;4.90;;;2.40;;
11747;SDS011;5931;48.832;9.072;2023-11-21T06:59:48;6.70;;;4.23;;
11747;SDS011;5931;48.832;9.072;2023-11-21T07:02:16;16.30;;;7.53;;
11747;SDS011;5931;48.832;9.072;2023-11-21T07:04:46;12.13;;;9.00;;
11747;SDS011;5931;48.832;9.072;2023-11-21T07:07:12;7.00;;;6.30;;
11747;SDS011;5931;48.832;9.072;2023-11-21T07:09:38;4.67;;;4.27;;
11747;SDS011;5931;48.832;9.072;2023-11-21T07:12:04;5.23;;;3.57;;
11747;SDS011;5931;48.832;9.072;2023-11-21T07:14:35;6.30;;;4.70;;
11747;SDS011;5931;48.832;9.072;2023-11-21T07:17:02;5.77;;;4.10;;
11747;SDS011;5931;48.832;9.072;2023-11-21T07:19:28;5.13;;;4.63;;
11747;SDS011;5931;48.832;9.072;2023-11-21T07:21:54;4.40;;;3.33;;
11747;SDS011;5931;48.832;9.072;2023-11-21T07:24:20;5.93;;;3.10;;
11747;SDS011;5931;48.832;9.072;2023-11-21T07:26:47;6.67;;;2.90;;
11747;SDS011;5931;48.832;9.072;2023-11-21T07:29:13;6.43;;;2.90;;
11747;SDS011;5931;48.832;9.072;2023-11-21T07:31:39;3.20;;;2.47;;
11747;SDS011;5931;48.832;9.072;2023-11-21T07:34:06;3.73;;;3.20;;
11747;SDS011;5931;48.832;9.072;2023-11-21T07:36:33;3.17;;;2.40;;
11747;SDS011;5931;48.832;9.072;2023-11-21T07:38:59;3.63;;;2.60;;
11747;SDS011;5931;48.832;9.072;2023-11-21T07:41:25;3.40;;;2.40;;
11747;SDS011;5931;48.832;9.072;2023-11-21T07:43:51;5.77;;;3.10;;
11747;SDS011;5931;48.832;9.072;2023-11-21T07:46:17;10.33;;;2.70;;
11747;SDS011;5931;48.832;9.072;2023-11-21T07:48:43;2.43;;;2.23;;
11747;SDS011;5931;48.832;9.072;2023-11-21T07:51:09;5.07;;;2.67;;
11747;SDS011;5931;48.832;9.072;2023-11-21T07:53:36;2.83;;;2.57;;
11747;SDS011;5931;48.832;9.072;2023-11-21T07:56:08;3.87;;;2.27;;
11747;SDS011;5931;48.832;9.072;2023-11-21T07:58:37;5.33;;;2.20;;
11747;SDS011;5931;48.832;9.072;2023-11-21T08:01:03;5.53;;;2.57;;
11747;SDS011;5931;48.832;9.072;2023-11-21T08:03:29;4.30;;;3.30;;
11747;SDS011;5931;48.832;9.072;2023-11-21T08:05:56;5.00;;;2.73;;
11747;SDS011;5931;48.832;9.072;2023-11-21T08:08:22;4.87;;;3.00;;
11747;SDS011;5931;48.832;9.072;2023-11-21T08:10:49;5.23;;;3.17;;
11747;SDS011;5931;48.832;9.072;2023-11-21T08:13:22;4.60;;;2.30;;
11747;SDS011;5931;48.832;9.072;2023-11-21T08:15:55;5.53;;;2.73;;
11747;SDS011;5931;48.832;9.072;2023-11-21T08:18:22;3.37;;;2.40;;
11747;SDS011;5931;48.832;9.072;2023-11-21T08:20:48;6.10;;;3.37;;
11747;SDS011;5931;48.832;9.072;2023-11-21T08:23:14;3.60;;;2.67;;
11747;SDS011;5931;48.832;9.072;2023-11-21T08:25:44;3.10;;;2.47;;
11747;SDS011;5931;48.832;9.072;2023-11-21T08:28:11;4.37;;;2.50;;
11747;SDS011;5931;48.832;9.072;2023-11-21T08:30:37;7.37;;;3.00;;
11747;SDS011;5931;48.832;9.072;2023-11-21T08:33:03;3.43;;;2.70;;
11747;SDS011;5931;48.832;9.072;2023-11-21T08:35:30;4.90;;;2.17;;
11747;SDS011;5931;48.832;9.072;2023-11-21T08:37:56;4.20;;;2.47;;
11747;SDS011;5931;48.832;9.072;2023-11-21T08:40:22;3.10;;;2.13;;
11747;SDS011;5931;48.832;9.072;2023-11-21T08:42:48;3.43;;;2.47;;
11747;SDS011;5931;48.832;9.072;2023-11-21T08:45:17;2.67;;;2.20;;
11747;SDS011;5931;48.832;9.072;2023-11-21T08:47:43;2.87;;;2.37;;
11747;SDS011;5931;48.832;9.072;2023-11-21T08:50:12;3.60;;;2.40;;
11747;SDS011;5931;48.832;9.072;2023-11-21T08:52:38;4.30;;;2.20;;
11747;SDS011;5931;48.832;9.072;2023-11-21T08:55:06;3.40;;;1.70;;
11747;SDS011;5931;48.832;9.072;2023-11-21T08:57:40;3.47;;;2.50;;
11747;SDS011;5931;48.832;9.072;2023-11-21T09:00:08;4.10;;;2.13;;
11747;SDS011;5931;48.832;9.072;2023-11-21T09:02:37;3.03;;;1.93;;
11747;SDS011;5931;48.832;9.072;2023-11-21T09:05:12;2.70;;;2.13;;
11747;SDS011;5931;48.832;9.072;2023-11-21T09:07:39;2.80;;;2.00;;
11747;SDS011;5931;48.832;9.072;2023-11-21T09:10:07;2.33;;;2.03;;
11747;SDS011;5931;48.832;9.072;2023-11-21T09:12:34;3.47;;;3.13;;
11747;SDS011;5931;48.832;9.072;2023-11-21T09:15:02;2.70;;;2.20;;
11747;SDS011;5931;48.832;9.072;2023-11-21T09:17:30;3.40;;;1.90;;
11747;SDS011;5931;48.832;9.072;2023-11-21T09:19:56;3.13;;;1.80;;
11747;SDS011;5931;48.832;9.072;2023-11-21T09:22:22;2.97;;;2.10;;
11747;SDS011;5931;48.832;9.072;2023-11-21T09:24:50;3.63;;;2.47;;
11747;SDS011;5931;48.832;9.072;2023-11-21T09:27:16;2.50;;;1.50;;
11747;SDS011;5931;48.832;9.072;2023-11-21T09:29:42;3.43;;;1.70;;
11747;SDS011;5931;48.832;9.072;2023-11-21T09:32:08;2.63;;;1.73;;
11747;SDS011;5931;48.832;9.072;2023-11-21T09:34:39;2.23;;;1.63;;
11747;SDS011;5931;48.832;9.072;2023-11-21T09:37:05;3.40;;;1.97;;
11747;SDS011;5931;48.832;9.072;2023-11-21T09:39:32;1.87;;;1.50;;
11747;SDS011;5931;48.832;9.072;2023-11-21T09:44:53;8.57;;;2.47;;
11747;SDS011;5931;48.832;9.072;2023-11-21T09:47:24;2.90;;;1.97;;
11747;SDS011;5931;48.832;9.072;2023-11-21T09:49:50;3.10;;;2.57;;
11747;SDS011;5931;48.832;9.072;2023-11-21T09:52:24;5.77;;;2.03;;
11747;SDS011;5931;48.832;9.072;2023-11-21T09:54:54;7.13;;;2.07;;
11747;SDS011;5931;48.832;9.072;2023-11-21T09:57:25;2.00;;;1.70;;
11747;SDS011;5931;48.832;9.072;2023-11-21T09:59:53;2.93;;;2.17;;
11747;SDS011;5931;48.832;9.072;2023-11-21T10:02:22;3.53;;;2.10;;
11747;SDS011;5931;48.832;9.072;2023-11-21T10:04:51;3.90;;;1.90;;
11747;SDS011;5931;48.832;9.072;2023-11-21T10:07:18;1.80;;;1.20;;
11747;SDS011;5931;48.832;9.072;2023-11-21T10:09:46;1.63;;;1.50;;
11747;SDS011;5931;48.832;9.072;2023-11-21T10:12:14;1.80;;;1.40;;
11747;SDS011;5931;48.832;9.072;2023-11-21T10:14:41;2.33;;;2.00;;
11747;SDS011;5931;48.832;9.072;2023-11-21T10:17:08;3.63;;;1.50;;
11747;SDS011;5931;48.832;9.072;2023-11-21T10:19:37;1.93;;;1.57;;
11747;SDS011;5931;48.832;9.072;2023-11-21T10:22:05;2.37;;;1.73;;
11747;SDS011;5931;48.832;9.072;2023-11-21T10:24:32;3.13;;;2.00;;
11747;SDS011;5931;48.832;9.072;2023-11-21T10:26:58;1.70;;;1.57;;
11747;SDS011;5931;48.832;9.072;2023-11-21T10:29:30;2.77;;;1.80;;
11747;SDS011;5931;48.832;9.072;2023-11-21T10:31:56;1.90;;;1.70;;
11747;SDS011;5931;48.832;9.072;2023-11-21T10:34:24;2.30;;;1.60;;
11747;SDS011;5931;48.832;9.072;2023-11-21T10:36:50;2.07;;;1.87;;
11747;SDS011;5931;48.832;9.072;2023-11-21T10:39:19;2.53;;;1.50;;
11747;SDS011;5931;48.832;9.072;2023-11-21T10:41:48;1.60;;;1.40;;
11747;SDS011;5931;48.832;9.072;2023-11-21T10:44:16;1.40;;;1.30;;
11747;SDS011;5931;48.832;9.072;2023-11-21T10:46:53;1.40;;;1.10;;
11747;SDS011;5931;48.832;9.072;2023-11-21T10:49:25;2.03;;;1.63;;
11747;SDS011;5931;48.832;9.072;2023-11-21T10:51:52;2.43;;;1.87;;
11747;SDS011;5931;48.832;9.072;2023-11-21T10:54:19;2.57;;;1.57;;
11747;SDS011;5931;48.832;9.072;2023-11-21T10:56:49;2.63;;;1.73;;
11747;SDS011;5931;48.832;9.072;2023-11-21T10:59:18;1.60;;;1.40;;
11747;SDS011;5931;48.832;9.072;2023-11-21T11:01:46;1.97;;;1.50;;
11747;SDS011;5931;48.832;9.072;2023-11-21T11:04:14;5.70;;;1.60;;
11747;SDS011;5931;48.832;9.072;2023-11-21T11:06:54;2.10;;;1.70;;
11747;SDS011;5931;48.832;9.072;2023-11-21T11:09:22;2.23;;;1.60;;
11747;SDS011;5931;48.832;9.072;2023-11-21T11:11:48;1.87;;;1.67;;
11747;SDS011;5931;48.832;9.072;2023-11-21T11:14:14;2.00;;;1.90;;
11747;SDS011;5931;48.832;9.072;2023-11-21T11:16:41;2.50;;;2.07;;
11747;SDS011;5931;48.832;9.072;2023-11-21T11:19:08;3.90;;;1.60;;
11747;SDS011;5931;48.832;9.072;2023-11-21T11:24:20;2.23;;;1.90;;
11747;SDS011;5931;48.832;9.072;2023-11-21T11:32:42;2.90;;;1.53;;
11747;SDS011;5931;48.832;9.072;2023-11-21T11:35:25;2.10;;;1.87;;
11747;SDS011;5931;48.832;9.072;2023-11-21T11:38:33;2.00;;;1.70;;
11747;SDS011;5931;48.832;9.072;2023-11-21T11:41:01;2.33;;;2.13;;
11747;SDS011;5931;48.832;9.072;2023-11-21T11:43:29;2.73;;;2.00;;
11747;SDS011;5931;48.832;9.072;2023-11-21T11:45:58;1.60;;;1.50;;
11747;SDS011;5931;48.832;9.072;2023-11-21T11:48:25;1.90;;;1.70;;
11747;SDS011;5931;48.832;9.072;2023-11-21T11:53:40;2.77;;;1.60;;
11747;SDS011;5931;48.832;9.072;2023-11-21T11:56:22;2.57;;;1.60;;
11747;SDS011;5931;48.832;9.072;2023-11-21T11:59:00;1.70;;;1.60;;
11747;SDS011;5931;48.832;9.072;2023-11-21T12:01:28;1.30;;;1.17;;
11747;SDS011;5931;48.832;9.072;2023-11-21T12:06:50;1.80;;;1.57;;
11747;SDS011;5931;48.832;9.072;2023-11-21T12:09:18;1.50;;;1.23;;
11747;SDS011;5931;48.832;9.072;2023-11-21T12:11:46;1.50;;;1.23;;
11747;SDS011;5931;48.832;9.072;2023-11-21T12:14:13;3.00;;;1.80;;
11747;SDS011;5931;48.832;9.072;2023-11-21T12:16:39;1.90;;;1.40;;
11747;SDS011;5931;48.832;9.072;2023-11-21T12:19:05;2.57;;;1.50;;
11747;SDS011;5931;48.832;9.072;2023-11-21T12:21:31;2.70;;;1.50;;
11747;SDS011;5931;48.832;9.072;2023-11-21T12:23:58;2.17;;;1.80;;
11747;SDS011;5931;48.832;9.072;2023-11-21T12:26:24;3.40;;;2.10;;
11747;SDS011;5931;48.832;9.072;2023-11-21T12:28:53;3.10;;;2.40;;
11747;SDS011;5931;48.832;9.072;2023-11-21T12:31:22;7.80;;;2.23;;
11747;SDS011;5931;48.832;9.072;2023-11-21T12:33:48;3.03;;;1.97;;
11747;SDS011;5931;48.832;9.072;2023-11-21T12:36:14;3.27;;;2.47;;
11747;SDS011;5931;48.832;9.072;2023-11-21T12:38:41;5.60;;;2.77;;
11747;SDS011;5931;48.832;9.072;2023-11-21T12:41:08;3.70;;;2.60;;
11747;SDS011;5931;48.832;9.072;2023-11-21T12:43:35;4.00;;;3.20;;
11747;SDS011;5931;48.832;9.072;2023-11-21T12:46:07;4.90;;;3.10;;
11747;SDS011;5931;48.832;9.072;2023-11-21T12:48:38;4.33;;;3.47;;
11747;SDS011;5931;48.832;9.072;2023-11-21T12:51:05;5.03;;;3.70;;
11747;SDS011;5931;48.832;9.072;2023-11-21T12:53:32;3.90;;;2.77;;
11747;SDS011;5931;48.832;9.072;2023-11-21T12:56:21;2.77;;;2.40;;
11747;SDS011;5931;48.832;9.072;2023-11-21T12:58:50;4.27;;;2.77;;
11747;SDS011;5931;48.832;9.072;2023-11-21T13:01:24;4.53;;;2.60;;
11747;SDS011;5931;48.832;9.072;2023-11-21T13:03:53;2.30;;;2.10;;
11747;SDS011;5931;48.832;9.072;2023-11-21T13:06:19;4.57;;;2.33;;
11747;SDS011;5931;48.832;9.072;2023-11-21T13:08:46;1.93;;;1.30;;
11747;SDS011;5931;48.832;9.072;2023-11-21T13:11:13;3.63;;;2.53;;
11747;SDS011;5931;48.832;9.072;2023-11-21T13:13:40;2.67;;;2.17;;
11747;SDS011;5931;48.832;9.072;2023-11-21T13:16:07;7.53;;;3.10;;
11747;SDS011;5931;48.832;9.072;2023-11-21T13:18:35;6.33;;;1.87;;
11747;SDS011;5931;48.832;9.072;2023-11-21T13:21:02;6.63;;;3.10;;
11747;SDS011;5931;48.832;9.072;2023-11-21T13:23:37;3.10;;;2.13;;
11747;SDS011;5931;48.832;9.072;2023-11-21T13:26:03;3.00;;;1.90;;
11747;SDS011;5931;48.832;9.072;2023-11-21T13:28:30;3.20;;;2.20;;
11747;SDS011;5931;48.832;9.072;2023-11-21T13:30:59;3.40;;;2.40;;
11747;SDS011;5931;48.832;9.072;2023-11-21T13:33:34;5.73;;;2.60;;
11747;SDS011;5931;48.832;9.072;2023-11-21T13:36:04;2.73;;;2.23;;
11747;SDS011;5931;48.832;9.072;2023-11-21T13:38:33;2.90;;;2.17;;
11747;SDS011;5931;48.832;9.072;2023-11-21T13:41:00;3.00;;;2.57;;
11747;SDS011;5931;48.832;9.072;2023-11-21T13:43:27;2.27;;;2.03;;
11747;SDS011;5931;48.832;9.072;2023-11-21T13:45:54;6.67;;;2.37;;
11747;SDS011;5931;48.832;9.072;2023-11-21T13:48:38;2.50;;;1.90;;
11747;SDS011;5931;48.832;9.072;2023-11-21T13:51:11;2.47;;;1.87;;
11747;SDS011;5931;48.832;9.072;2023-11-21T13:53:43;3.90;;;3.03;;
11747;SDS011;5931;48.832;9.072;2023-11-21T13:56:15;2.93;;;2.13;;
11747;SDS011;5931;48.832;9.072;2023-11-21T13:58:45;5.07;;;3.40;;
11747;SDS011;5931;48.832;9.072;2023-11-21T14:01:18;6.30;;;2.70;;
11747;SDS011;5931;48.832;9.072;2023-11-21T14:04:07;4.87;;;2.40;;
11747;SDS011;5931;48.832;9.072;2023-11-21T14:06:42;9.77;;;3.37;;
11747;SDS011;5931;48.832;9.072;2023-11-21T14:09:16;3.17;;;2.53;;
11747;SDS011;5931;48.832;9.072;2023-11-21T14:11:58;3.03;;;2.33;;
11747;SDS011;5931;48.832;9.072;2023-11-21T14:14:25;4.10;;;2.40;;
11747;SDS011;5931;48.832;9.072;2023-11-21T14:16:55;4.00;;;2.77;;
11747;SDS011;5931;48.832;9.072;2023-11-21T14:19:22;6.00;;;2.80;;
11747;SDS011;5931;48.832;9.072;2023-11-21T14:21:52;5.33;;;2.57;;
11747;SDS011;5931;48.832;9.072;2023-11-21T14:24:18;5.33;;;2.83;;
11747;SDS011;5931;48.832;9.072;2023-11-21T14:26:46;3.83;;;3.03;;
11747;SDS011;5931;48.832;9.072;2023-11-21T14:29:17;5.33;;;4.20;;
11747;SDS011;5931;48.832;9.072;2023-11-21T14:31:47;3.70;;;2.83;;
11747;SDS011;5931;48.832;9.072;2023-11-21T14:34:13;7.83;;;3.00;;
11747;SDS011;5931;48.832;9.072;2023-11-21T14:36:40;5.17;;;3.03;;
11747;SDS011;5931;48.832;9.072;2023-11-21T14:39:06;5.33;;;2.70;;
11747;SDS011;5931;48.832;9.072;2023-11-21T14:41:45;6.00;;;2.47;;
11747;SDS011;5931;48.832;9.072;2023-11-21T14:44:11;5.40;;;2.37;;
11747;SDS011;5931;48.832;9.072;2023-11-21T14:46:38;9.13;;;2.37;;
11747;SDS011;5931;48.832;9.072;2023-11-21T14:49:08;3.80;;;3.07;;
11747;SDS011;5931;48.832;9.072;2023-11-21T14:51:47;8.13;;;2.80;;
11747;SDS011;5931;48.832;9.072;2023-11-21T14:54:31;4.97;;;2.33;;
11747;SDS011;5931;48.832;9.072;2023-11-21T14:57:06;2.70;;;2.40;;
11747;SDS011;5931;48.832;9.072;2023-11-21T14:59:46;10.50;;;8.00;;
11747;SDS011;5931;48.832;9.072;2023-11-21T15:02:16;4.00;;;3.20;;
11747;SDS011;5931;48.832;9.072;2023-11-21T15:05:07;5.07;;;3.27;;
11747;SDS011;5931;48.832;9.072;2023-11-21T15:07:40;3.23;;;2.27;;
11747;SDS011;5931;48.832;9.072;2023-11-21T15:10:06;3.90;;;2.83;;
11747;SDS011;5931;48.832;9.072;2023-11-21T15:12:38;2.93;;;2.63;;
11747;SDS011;5931;48.832;9.072;2023-11-21T15:15:05;3.07;;;2.50;;
11747;SDS011;5931;48.832;9.072;2023-11-21T15:17:35;4.13;;;2.90;;
11747;SDS011;5931;48.832;9.072;2023-11-21T15:20:02;6.40;;;3.60;;
11747;SDS011;5931;48.832;9.072;2023-11-21T15:22:32;4.63;;;3.53;;
11747;SDS011;5931;48.832;9.072;2023-11-21T15:24:57;5.07;;;3.33;;